Time;durP1;ratioP1;P1;durP2;ratioP2;P2;SDS_P1;SDS_P2;PMS_P1;PMS_P2;Temp;Humidity;BMP_temperature;BMP_pressure;BME280_temperature;BME280_humidity;BME280_pressure;Samples;Min_cycle;Max_cycle;Signal;HPM_P1;HPM_P2
2022/07/14 00:08:33;;;;;;;11.82;2.33;;;14.90;99.90;;;;;;5193609;22;20121;-68
2022/07/14 00:11:00;;;;;;;;;;;14.70;99.90;;;;;;5072537;28;20396;-67
2022/07/14 00:13:26;;;;;;;11.90;2.00;;;14.40;99.90;;;;;;5072181;28;20031;-70
2022/07/14 00:15:52;;;;;;;10.70;2.15;;;14.50;99.90;;;;;;5072087;28;20113;-71
2022/07/14 00:18:17;;;;;;;5.85;1.73;;;14.30;99.90;;;;;;5071976;28;20040;-69
2022/07/14 00:20:43;;;;;;;;;;;14.70;99.90;;;;;;5072380;28;20051;-68
2022/07/14 00:23:09;;;;;;;10.57;1.98;;;14.30;99.90;;;;;;5071890;28;19997;-69
2022/07/14 00:25:35;;;;;;;;;;;14.30;99.90;;;;;;5071210;28;20041;-67
2022/07/14 00:28:00;;;;;;;12.07;2.65;;;14.70;99.90;;;;;;5072036;28;19972;-68
2022/07/14 00:30:26;;;;;;;;;;;14.60;99.90;;;;;;5054408;28;20056;-70
2022/07/14 00:32:52;;;;;;;12.85;2.45;;;14.20;99.90;;;;;;5071327;28;19969;-68
2022/07/14 00:35:18;;;;;;;;;;;14.10;99.90;;;;;;5071022;28;20055;-69
2022/07/14 00:37:43;;;;;;;9.57;2.55;;;14.40;99.90;;;;;;5071691;28;19967;-68
2022/07/14 00:40:10;;;;;;;11.45;3.03;;;14.20;99.90;;;;;;5071992;28;20084;-68
2022/07/14 00:42:39;;;;;;;7.20;1.90;;;14.40;99.90;;;;;;5053864;28;20048;-68
2022/07/14 00:45:09;;;;;;;11.10;2.38;;;14.20;99.90;;;;;;5071840;28;20064;-68
2022/07/14 00:47:36;;;;;;;12.43;2.80;;;14.30;99.90;;;;;;5071679;28;20040;-68
2022/07/14 00:50:03;;;;;;;10.43;2.28;;;14.30;99.90;;;;;;5071679;28;20056;-68
2022/07/14 00:52:29;;;;;;;13.98;3.05;;;14.20;99.90;;;;;;5071950;28;20052;-69
2022/07/14 00:54:56;;;;;;;10.05;2.58;;;14.40;99.90;;;;;;5071871;28;20048;-68
2022/07/14 00:57:22;;;;;;;8.23;2.60;;;14.10;99.90;;;;;;5071738;28;20071;-67
2022/07/14 00:59:48;;;;;;;8.32;2.00;;;14.30;99.90;;;;;;5071635;28;20048;-70
2022/07/14 01:02:15;;;;;;;10.20;3.30;;;13.90;99.90;;;;;;5071598;28;20119;-69
2022/07/14 01:04:41;;;;;;;9.60;2.35;;;14.20;99.90;;;;;;5071544;28;20044;-68
2022/07/14 01:07:07;;;;;;;6.07;2.25;;;14.00;99.90;;;;;;5071324;28;20892;-69
2022/07/14 01:09:33;;;;;;;;;;;14.20;99.90;;;;;;5072035;28;20110;-69
2022/07/14 01:12:00;;;;;;;6.82;2.10;;;14.00;99.90;;;;;;5071539;28;20377;-68
2022/07/14 01:14:25;;;;;;;4.00;2.20;;;14.10;99.90;;;;;;5071477;28;20412;-68
2022/07/14 01:16:55;;;;;;;7.18;2.13;;;13.60;99.90;;;;;;5071421;28;20047;-68
2022/07/14 01:19:24;;;;;;;7.95;2.45;;;13.70;99.90;;;;;;5071181;28;20049;-68
2022/07/14 01:21:54;;;;;;;10.30;2.03;;;13.60;99.90;;;;;;5071499;28;20044;-68
2022/07/14 01:24:20;;;;;;;8.77;2.58;;;13.40;99.90;;;;;;5071473;28;20147;-68
2022/07/14 01:26:46;;;;;;;8.38;2.17;;;13.10;99.90;;;;;;5071178;28;20444;-70
2022/07/14 01:29:12;;;;;;;10.00;2.40;;;13.20;99.90;;;;;;5071311;28;20044;-68
2022/07/14 01:31:38;;;;;;;;;;;13.10;99.90;;;;;;5071596;28;20433;-70
2022/07/14 01:34:03;;;;;;;6.95;2.20;;;12.90;99.90;;;;;;5071101;28;19932;-69
2022/07/14 01:36:29;;;;;;;;;;;12.80;99.90;;;;;;5071792;28;20442;-68
2022/07/14 01:38:54;;;;;;;11.45;2.28;;;12.70;99.90;;;;;;5071289;28;20299;-67
2022/07/14 01:41:21;;;;;;;;;;;13.00;99.90;;;;;;5071653;28;20053;-67
2022/07/14 01:43:48;;;;;;;11.63;2.65;;;12.80;99.90;;;;;;5071302;28;19920;-68
2022/07/14 01:46:14;;;;;;;8.98;2.92;;;12.60;99.90;;;;;;5074850;28;20044;-68
2022/07/14 01:48:39;;;;;;;9.48;2.80;;;12.70;99.90;;;;;;5074772;28;20404;-67
2022/07/14 01:51:05;;;;;;;8.05;3.03;;;12.70;99.90;;;;;;5075171;28;20114;-67
2022/07/14 01:53:31;;;;;;;10.38;3.17;;;12.60;99.90;;;;;;5074616;28;20405;-68
2022/07/14 01:55:58;;;;;;;;;;;12.50;99.90;;;;;;5075242;28;20084;-67
2022/07/14 01:58:24;;;;;;;7.47;2.80;;;12.50;99.90;;;;;;5074811;28;19963;-67
2022/07/14 02:03:34;;;;;;;9.05;3.05;;;13.90;99.90;;;;;;5074759;28;19930;-66
2022/07/14 02:06:00;;;;;;;10.18;2.72;;;12.50;99.90;;;;;;5073368;28;20127;-67
2022/07/14 02:08:26;;;;;;;7.82;3.15;;;12.80;99.90;;;;;;5074450;28;20064;-67
2022/07/14 02:13:36;;;;;;;8.25;3.03;;;13.20;99.90;;;;;;5074289;28;20110;-67
2022/07/14 02:16:02;;;;;;;7.10;3.10;;;12.60;99.90;;;;;;5072977;28;20056;-69
2022/07/14 02:18:28;;;;;;;;;;;12.40;99.90;;;;;;5057108;28;20067;-69
2022/07/14 02:20:54;;;;;;;8.60;2.53;;;12.40;99.90;;;;;;5056374;28;20011;-68
2022/07/14 02:23:20;;;;;;;;;;;12.60;99.90;;;;;;5074707;28;20119;-68
2022/07/14 02:25:46;;;;;;;11.48;3.10;;;12.50;99.90;;;;;;5074130;28;20434;-67
2022/07/14 02:28:12;;;;;;;9.57;2.80;;;12.50;99.90;;;;;;5074060;28;20043;-67
2022/07/14 02:30:38;;;;;;;7.13;2.88;;;12.20;99.90;;;;;;5073909;28;20144;-67
2022/07/14 02:33:04;;;;;;;9.10;2.65;;;12.40;99.90;;;;;;5074217;28;20053;-69
2022/07/14 02:35:30;;;;;;;;;;;12.20;99.90;;;;;;5056771;28;20050;-68
2022/07/14 02:37:55;;;;;;;8.35;2.65;;;12.30;99.90;;;;;;5056090;28;19924;-68
2022/07/14 02:40:21;;;;;;;4.93;2.63;;;12.50;99.90;;;;;;5074000;28;20037;-67
2022/07/14 02:42:47;;;;;;;9.77;3.33;;;12.20;99.90;;;;;;5073959;28;20048;-67
2022/07/14 02:45:12;;;;;;;9.30;3.67;;;12.20;99.90;;;;;;5074045;28;20051;-66
2022/07/14 02:47:38;;;;;;;7.40;2.72;;;12.20;99.90;;;;;;5073766;28;20120;-68
2022/07/14 02:50:05;;;;;;;6.05;2.80;;;12.50;99.90;;;;;;5073856;28;20136;-69
2022/07/14 02:52:31;;;;;;;5.32;2.90;;;12.20;99.90;;;;;;5073842;28;20044;-68
2022/07/14 02:54:56;;;;;;;8.02;2.75;;;12.20;99.90;;;;;;5073662;28;20560;-67
2022/07/14 02:57:22;;;;;;;8.50;2.85;;;12.30;99.90;;;;;;5072987;28;20408;-68
2022/07/14 02:59:47;;;;;;;10.43;3.38;;;12.30;99.90;;;;;;5073432;28;20048;-67
2022/07/14 03:02:13;;;;;;;10.68;3.20;;;12.20;99.90;;;;;;5073284;28;20136;-67
2022/07/14 03:04:39;;;;;;;7.13;2.72;;;12.20;99.90;;;;;;5073335;28;20064;-69
2022/07/14 03:07:05;;;;;;;13.23;3.40;;;12.10;99.90;;;;;;5055561;28;20048;-68
2022/07/14 03:09:30;;;;;;;8.02;2.90;;;12.00;99.90;;;;;;5073344;28;20127;-68
2022/07/14 03:11:56;;;;;;;6.88;2.80;;;12.00;99.90;;;;;;5073163;28;20090;-67
2022/07/14 03:14:22;;;;;;;5.10;2.80;;;12.10;99.90;;;;;;5073106;28;20041;-68
2022/07/14 03:16:47;;;;;;;7.88;2.55;;;12.50;99.90;;;;;;5055600;28;20056;-68
2022/07/14 03:19:13;;;;;;;7.50;3.00;;;12.00;99.90;;;;;;5073066;28;20053;-67
2022/07/14 03:21:39;;;;;;;9.82;2.72;;;11.90;99.90;;;;;;5073106;28;20087;-69
2022/07/14 03:24:06;;;;;;;5.18;2.30;;;11.90;99.90;;;;;;5073059;28;20412;-67
2022/07/14 03:26:32;;;;;;;6.07;2.40;;;11.80;99.90;;;;;;5072870;28;20055;-67
2022/07/14 03:28:58;;;;;;;9.32;2.42;;;11.90;99.90;;;;;;5073146;28;20036;-67
2022/07/14 03:31:24;;;;;;;8.88;2.38;;;11.70;99.90;;;;;;5072997;28;20450;-68
2022/07/14 03:33:49;;;;;;;8.70;2.55;;;11.90;99.90;;;;;;5072931;28;20055;-68
2022/07/14 03:36:16;;;;;;;9.55;2.72;;;11.70;99.90;;;;;;5072823;28;20515;-66
2022/07/14 03:38:42;;;;;;;8.02;2.22;;;11.80;99.90;;;;;;5072710;28;20052;-68
2022/07/14 03:41:07;;;;;;;6.63;2.90;;;12.20;99.90;;;;;;5072657;28;20131;-68
2022/07/14 03:43:34;;;;;;;6.43;2.42;;;11.90;99.90;;;;;;5071273;28;20051;-68
2022/07/14 03:46:00;;;;;;;9.10;3.47;;;12.00;99.90;;;;;;5072717;28;20048;-67
2022/07/14 03:48:26;;;;;;;6.82;2.40;;;11.90;99.90;;;;;;5072650;28;20263;-67
2022/07/14 03:50:51;;;;;;;6.47;2.38;;;11.60;99.90;;;;;;5072425;28;20145;-67
2022/07/14 03:53:17;;;;;;;9.65;2.80;;;11.60;99.90;;;;;;5072467;28;20068;-67
2022/07/14 03:55:43;;;;;;;7.75;2.50;;;11.70;99.90;;;;;;5072403;28;20052;-68
2022/07/14 03:58:09;;;;;;;5.10;2.55;;;11.40;99.90;;;;;;5072264;28;20048;-68
2022/07/14 04:00:34;;;;;;;8.82;2.63;;;11.40;99.90;;;;;;5072480;28;20052;-67
2022/07/14 04:03:00;;;;;;;6.88;2.50;;;11.60;99.90;;;;;;5072609;28;20040;-67
2022/07/14 04:05:26;;;;;;;6.97;2.30;;;11.60;99.90;;;;;;5072321;28;20049;-67
2022/07/14 04:07:51;;;;;;;7.18;2.47;;;11.60;99.90;;;;;;5071466;28;20083;-68
2022/07/14 04:10:18;;;;;;;9.43;3.10;;;11.60;99.90;;;;;;5072066;28;20129;-67
2022/07/14 04:12:44;;;;;;;9.23;2.90;;;11.40;99.90;;;;;;5072043;28;20044;-67
2022/07/14 04:15:10;;;;;;;8.30;2.63;;;11.50;99.90;;;;;;5054265;28;20055;-69
2022/07/14 04:17:35;;;;;;;;;;;11.30;99.90;;;;;;5072509;28;20048;-67
2022/07/14 04:20:01;;;;;;;8.07;2.40;;;11.70;99.90;;;;;;5072118;28;19928;-68
2022/07/14 04:22:27;;;;;;;5.03;2.50;;;11.90;99.90;;;;;;5072023;28;20128;-68
2022/07/14 04:24:53;;;;;;;10.90;2.75;;;11.60;99.90;;;;;;5071972;28;20414;-66
2022/07/14 04:27:19;;;;;;;12.23;2.97;;;11.90;99.90;;;;;;5071899;28;20047;-67
2022/07/14 04:29:45;;;;;;;8.73;2.67;;;11.50;99.90;;;;;;5071853;28;20045;-67
2022/07/14 04:32:11;;;;;;;6.88;2.72;;;11.50;99.90;;;;;;5070620;28;20449;-68
2022/07/14 04:34:37;;;;;;;7.13;2.53;;;12.30;99.90;;;;;;5054536;28;20091;-68
2022/07/14 04:37:03;;;;;;;8.93;2.58;;;12.10;99.90;;;;;;5054333;28;20084;-67
2022/07/14 04:39:29;;;;;;;8.32;2.63;;;12.10;99.90;;;;;;5071768;28;20048;-68
2022/07/14 04:41:54;;;;;;;6.55;2.88;;;11.70;99.90;;;;;;5071689;28;20043;-68
2022/07/14 04:44:20;;;;;;;7.22;2.78;;;12.00;99.90;;;;;;5071918;28;20097;-69
2022/07/14 04:46:46;;;;;;;11.25;2.85;;;12.20;99.90;;;;;;5071814;28;20056;-69
2022/07/14 04:52:02;;;;;;;6.82;2.80;;;12.80;99.90;;;;;;5071693;28;20645;-68
2022/07/14 04:54:28;;;;;;;11.23;3.33;;;12.10;99.90;;;;;;5071601;28;20492;-68
2022/07/14 04:56:54;;;;;;;7.35;3.00;;;12.30;99.90;;;;;;5071768;28;20093;-68
2022/07/14 04:59:20;;;;;;;13.00;4.00;;;12.40;99.90;;;;;;5071756;28;20045;-68
2022/07/14 05:01:46;;;;;;;7.85;3.47;;;12.70;99.90;;;;;;5071483;28;20053;-68
2022/07/14 05:04:12;;;;;;;7.13;3.35;;;12.40;99.90;;;;;;5071659;28;20055;-69
2022/07/14 05:06:37;;;;;;;6.88;3.10;;;12.70;99.90;;;;;;5071486;28;20500;-68
2022/07/14 05:09:03;;;;;;;8.57;3.20;;;12.70;99.90;;;;;;5053280;28;20064;-67
2022/07/14 05:11:30;;;;;;;10.00;3.15;;;12.50;99.90;;;;;;5071516;28;20041;-67
2022/07/14 05:13:56;;;;;;;10.20;3.17;;;13.10;99.90;;;;;;5071512;28;20059;-69
2022/07/14 05:16:21;;;;;;;9.18;3.35;;;13.50;99.90;;;;;;5053791;28;20048;-67
2022/07/14 05:18:47;;;;;;;7.07;2.75;;;13.10;99.90;;;;;;5071523;28;20048;-67
2022/07/14 05:21:14;;;;;;;7.95;2.60;;;13.30;99.90;;;;;;5075311;28;20052;-68
2022/07/14 05:23:39;;;;;;;9.82;2.85;;;13.60;99.90;;;;;;5075217;28;20569;-67
2022/07/14 05:26:12;;;;;;;10.18;2.80;;;13.70;99.90;;;;;;5075428;28;20095;-67
2022/07/14 05:28:38;;;;;;;11.50;2.80;;;13.80;99.90;;;;;;5074033;28;20045;-67
2022/07/14 05:31:04;;;;;;;9.45;2.35;;;13.90;99.90;;;;;;5075080;28;20049;-67
2022/07/14 05:33:30;;;;;;;;;;;14.20;99.90;;;;;;5075523;28;20066;-67
2022/07/14 05:35:56;;;;;;;12.23;2.78;;;14.20;99.90;;;;;;5075022;28;19928;-68
2022/07/14 05:38:21;;;;;;;;;;;14.10;99.90;;;;;;5075358;28;20048;-68
2022/07/14 05:40:47;;;;;;;8.38;2.35;;;14.60;99.90;;;;;;5075087;28;19974;-68
2022/07/14 05:43:14;;;;;;;6.72;2.40;;;14.50;99.90;;;;;;5057370;28;20529;-67
2022/07/14 05:45:39;;;;;;;8.98;2.38;;;14.30;99.90;;;;;;5057221;28;20053;-68
2022/07/14 05:48:06;;;;;;;4.85;2.00;;;14.80;99.90;;;;;;5073576;28;20060;-67
2022/07/14 05:50:31;;;;;;;9.93;2.50;;;14.90;99.90;;;;;;5074634;28;20055;-67
2022/07/14 05:52:57;;;;;;;9.77;2.85;;;15.10;99.90;;;;;;5073684;28;20052;-67
2022/07/14 05:55:23;;;;;;;9.23;2.17;;;14.90;99.90;;;;;;5074871;28;20476;-67
2022/07/14 05:57:49;;;;;;;8.20;2.17;;;15.00;99.90;;;;;;5074773;28;20522;-68
2022/07/14 06:00:15;;;;;;;;;;;14.60;99.90;;;;;;5075125;28;20058;-68
2022/07/14 06:02:42;;;;;;;5.57;2.08;;;14.90;99.90;;;;;;5074669;28;19931;-68
2022/07/14 06:05:08;;;;;;;7.65;2.45;;;15.20;99.90;;;;;;5074408;28;20488;-67
2022/07/14 06:07:33;;;;;;;4.05;1.60;;;15.20;99.90;;;;;;5074309;28;20407;-66
2022/07/14 06:10:01;;;;;;;;;;;15.50;99.90;;;;;;5074978;28;20045;-67
2022/07/14 06:12:27;;;;;;;;;;;15.40;99.90;;;;;;5074811;28;20312;-67
2022/07/14 06:14:53;;;;;;;8.13;2.33;;;15.50;99.90;;;;;;5074441;28;19927;-67
2022/07/14 06:17:18;;;;;;;6.75;1.60;;;15.30;99.90;;;;;;5074312;28;20045;-67
2022/07/14 06:19:44;;;;;;;;;;;16.00;99.90;;;;;;5074632;28;20044;-67
2022/07/14 06:22:10;;;;;;;5.65;1.73;;;15.80;99.90;;;;;;5074457;28;19963;-67
2022/07/14 06:24:41;;;;;;;6.95;1.95;;;15.90;99.90;;;;;;5074639;28;20098;-67
2022/07/14 06:27:07;;;;;;;5.47;1.58;;;16.00;99.90;;;;;;5074299;28;20056;-68
2022/07/14 06:29:32;;;;;;;9.13;2.00;;;15.80;99.90;;;;;;5074101;28;20055;-68
2022/07/14 06:31:58;;;;;;;12.02;1.90;;;16.00;99.90;;;;;;5073103;28;20032;-67
2022/07/14 06:34:24;;;;;;;4.57;1.50;;;16.10;99.90;;;;;;5073959;28;20040;-66
2022/07/14 06:36:49;;;;;;;;;;;16.30;99.90;;;;;;5074564;28;20044;-67
2022/07/14 06:39:15;;;;;;;6.57;1.88;;;16.50;99.90;;;;;;5074085;28;19924;-66
2022/07/14 06:41:41;;;;;;;;;;;16.80;99.90;;;;;;5074543;28;20051;-66
2022/07/14 06:44:07;;;;;;;7.05;1.75;;;17.00;99.90;;;;;;5073867;28;20387;-67
2022/07/14 06:46:33;;;;;;;;;;;16.60;99.90;;;;;;5074216;28;20114;-68
2022/07/14 06:48:59;;;;;;;5.53;1.10;;;17.00;99.90;;;;;;5073636;28;20303;-66
2022/07/14 06:51:25;;;;;;;7.18;1.10;;;17.00;99.90;;;;;;5073520;28;20504;-67
2022/07/14 06:53:51;;;;;;;5.68;1.10;;;17.40;99.90;;;;;;5056084;28;20102;-66
2022/07/14 06:56:17;;;;;;;;;;;17.40;99.90;;;;;;5074163;28;20492;-68
2022/07/14 06:58:42;;;;;;;7.88;1.20;;;17.10;99.90;;;;;;5073575;28;19920;-66
2022/07/14 07:01:08;;;;;;;;;;;17.70;99.90;;;;;;5073886;28;20037;-66
2022/07/14 07:03:34;;;;;;;6.00;1.33;;;17.70;99.90;;;;;;5073481;28;19924;-67
2022/07/14 07:08:44;;;;;;;7.65;1.63;;;17.70;99.90;;;;;;5073341;28;19920;-66
2022/07/14 07:11:09;;;;;;;7.82;1.70;;;18.10;99.90;;;;;;5073245;28;20044;-67
2022/07/14 07:13:37;;;;;;;;;;;19.80;99.90;;;;;;5073672;28;20052;-66
2022/07/14 07:16:06;;;;;;;8.27;1.20;;;17.80;99.90;;;;;;5073205;28;20395;-67
2022/07/14 07:18:33;;;;;;;5.07;1.25;;;17.80;99.90;;;;;;5073407;28;20095;-68
2022/07/14 07:20:59;;;;;;;6.10;0.98;;;18.10;99.90;;;;;;5073220;28;20040;-66
2022/07/14 07:23:25;;;;;;;2.38;1.15;;;18.30;99.90;;;;;;5073180;28;20055;-66
2022/07/14 07:25:52;;;;;;;6.93;1.45;;;18.00;99.90;;;;;;5073059;28;20127;-66
2022/07/14 07:28:18;;;;;;;4.78;0.95;;;18.60;99.90;;;;;;5072903;28;20411;-66
2022/07/14 07:30:43;;;;;;;3.17;0.90;;;18.70;99.90;;;;;;5072776;28;20040;-66
2022/07/14 07:33:09;;;;;;;2.60;0.90;;;18.60;99.90;;;;;;5073028;28;20044;-67
2022/07/14 07:35:35;;;;;;;4.03;1.10;;;19.10;99.90;;;;;;5072962;28;20111;-67
2022/07/14 07:38:01;;;;;;;2.50;1.00;;;18.60;99.90;;;;;;5072875;28;20040;-67
2022/07/14 07:40:27;;;;;;;3.85;0.93;;;18.70;99.90;;;;;;5072732;28;20120;-67
2022/07/14 07:42:53;;;;;;;2.50;0.85;;;18.60;99.90;;;;;;5072613;28;20140;-67
2022/07/14 07:45:18;;;;;;;2.83;0.80;;;18.40;99.90;;;;;;5072562;28;20044;-66
2022/07/14 07:47:44;;;;;;;2.47;0.57;;;18.60;99.90;;;;;;5054887;28;20110;-67
2022/07/14 07:50:11;;;;;;;2.30;0.90;;;18.50;99.90;;;;;;5072692;28;20048;-66
2022/07/14 07:52:38;;;;;;;6.22;0.98;;;18.70;99.90;;;;;;5054578;28;20048;-67
2022/07/14 07:55:10;;;;;;;2.65;0.95;;;18.70;99.90;;;;;;5072539;28;20053;-67
2022/07/14 07:57:37;;;;;;;3.65;0.90;;;18.80;99.90;;;;;;5072394;28;20388;-66
2022/07/14 08:00:06;;;;;;;1.60;0.63;;;18.70;99.90;;;;;;5072446;28;20072;-69
2022/07/14 08:02:32;;;;;;;9.48;1.27;;;19.00;99.90;;;;;;5054673;28;20131;-68
2022/07/14 08:04:58;;;;;;;3.70;0.88;;;18.70;99.90;;;;;;5072360;28;20131;-67
2022/07/14 08:07:24;;;;;;;3.80;1.25;;;18.40;99.90;;;;;;5072007;28;20052;-66
2022/07/14 08:09:49;;;;;;;1.63;0.73;;;18.80;99.90;;;;;;5072312;28;20059;-66
2022/07/14 08:12:15;;;;;;;2.22;0.70;;;18.70;99.90;;;;;;5072177;28;20044;-67
2022/07/14 08:14:51;;;;;;;4.82;0.93;;;18.90;99.90;;;;;;5072419;28;20044;-66
2022/07/14 08:17:20;;;;;;;2.65;1.10;;;18.90;99.90;;;;;;5072452;28;20125;-66
2022/07/14 08:19:46;;;;;;;3.72;0.70;;;18.80;99.90;;;;;;5072053;28;20531;-67
2022/07/14 08:22:12;;;;;;;3.88;1.10;;;19.30;99.90;;;;;;5071986;28;20585;-66
2022/07/14 08:24:38;;;;;;;3.42;0.90;;;19.20;99.90;;;;;;5072013;28;20270;-66
2022/07/14 08:27:03;;;;;;;5.53;1.00;;;19.00;99.90;;;;;;5071892;28;20055;-67
2022/07/14 08:29:29;;;;;;;3.45;1.00;;;18.90;99.90;;;;;;5072173;28;20057;-67
2022/07/14 08:31:55;;;;;;;1.75;0.88;;;18.80;99.90;;;;;;5054094;28;20052;-66
2022/07/14 08:34:21;;;;;;;3.47;1.00;;;19.00;99.90;;;;;;5072175;28;20480;-66
2022/07/14 08:36:48;;;;;;;4.43;1.30;;;19.20;99.90;;;;;;5071853;28;20079;-66
2022/07/14 08:39:15;;;;;;;3.17;0.85;;;18.80;99.90;;;;;;5071856;28;20411;-67
2022/07/14 08:41:41;;;;;;;3.08;0.90;;;19.10;99.90;;;;;;5071706;28;20045;-66
2022/07/14 08:44:08;;;;;;;6.07;0.90;;;19.10;99.90;;;;;;5071971;28;20052;-66
2022/07/14 08:46:36;;;;;;;3.75;0.90;;;19.30;99.90;;;;;;5053941;28;20127;-66
2022/07/14 08:49:06;;;;;;;2.65;1.00;;;19.20;99.90;;;;;;5071825;28;20437;-66
2022/07/14 08:51:33;;;;;;;6.20;1.63;;;19.20;99.90;;;;;;5071645;28;20048;-66
2022/07/14 08:54:00;;;;;;;4.07;0.73;;;19.30;99.90;;;;;;5071077;28;20106;-68
2022/07/14 08:56:26;;;;;;;5.72;1.65;;;19.60;99.90;;;;;;5053661;28;20049;-67
2022/07/14 08:58:51;;;;;;;3.15;0.80;;;19.40;99.90;;;;;;5054042;28;20454;-66
2022/07/14 09:01:17;;;;;;;5.90;1.20;;;19.20;99.90;;;;;;5071464;28;20045;-67
2022/07/14 09:03:43;;;;;;;3.65;1.05;;;19.60;99.90;;;;;;5071383;28;20126;-66
2022/07/14 09:06:09;;;;;;;4.90;1.20;;;19.00;99.90;;;;;;5071514;28;20044;-67
2022/07/14 09:08:54;;;;;;;3.30;0.90;;;19.50;99.90;;;;;;5071131;28;20133;-67
2022/07/14 09:11:20;;;;;;;4.15;0.90;;;19.30;99.90;;;;;;5053443;28;20523;-67
2022/07/14 09:13:45;;;;;;;5.28;1.67;;;19.50;99.90;;;;;;5071548;28;20048;-66
2022/07/14 09:16:23;;;;;;;4.80;0.80;;;19.60;99.90;;;;;;5071512;28;20097;-67
2022/07/14 09:19:07;;;;;;;6.55;1.08;;;19.80;99.90;;;;;;5071395;28;20101;-69
2022/07/14 09:21:33;;;;;;;2.50;0.65;;;19.60;99.90;;;;;;5071683;28;20399;-66
2022/07/14 09:23:59;;;;;;;3.78;0.73;;;19.80;99.90;;;;;;5071540;28;20052;-67
2022/07/14 09:26:25;;;;;;;2.90;0.85;;;19.60;99.90;;;;;;5071315;28;20047;-66
2022/07/14 09:28:52;;;;;;;3.50;0.90;;;19.60;99.90;;;;;;5071383;28;20047;-66
2022/07/14 09:31:36;;;;;;;5.90;1.20;;;19.60;99.90;;;;;;5071362;28;20048;-67
2022/07/14 09:34:05;;;;;;;1.90;1.02;;;20.10;99.90;;;;;;5071271;28;20047;-66
2022/07/14 09:36:33;;;;;;;2.53;0.85;;;20.10;99.90;;;;;;5071425;28;20132;-66
2022/07/14 09:39:07;;;;;;;10.02;1.05;;;20.60;99.90;;;;;;5053429;28;20052;-67
2022/07/14 09:41:38;;;;;;;7.85;1.75;;;20.50;99.90;;;;;;5071325;28;20052;-66
2022/07/14 09:44:12;;;;;;;3.35;0.90;;;20.10;99.90;;;;;;5071256;28;20155;-65
2022/07/14 09:46:49;;;;;;;4.78;1.00;;;20.10;99.90;;;;;;5071480;28;20045;-66
2022/07/14 09:49:17;;;;;;;4.25;1.30;;;20.10;99.90;;;;;;5053614;28;20056;-66
2022/07/14 09:51:55;;;;;;;8.20;1.00;;;20.30;99.90;;;;;;5071201;28;20392;-66
2022/07/14 09:54:38;;;;;;;5.45;1.00;;;20.00;99.90;;;;;;5069822;28;20052;-66
2022/07/14 09:57:13;;;;;;;4.65;1.00;;;20.30;99.90;;;;;;5071348;28;20056;-69
2022/07/14 09:59:48;;;;;;;5.35;1.02;;;20.60;99.90;;;;;;5071200;28;20045;-66
2022/07/14 10:02:21;;;;;;;4.95;1.05;;;20.30;99.90;;;;;;5071277;28;20114;-68
2022/07/14 10:04:51;;;;;;;5.25;1.08;;;20.60;99.90;;;;;;5071325;28;20130;-66
2022/07/14 10:07:18;;;;;;;4.72;1.00;;;20.50;99.90;;;;;;5073135;28;20198;-64
2022/07/14 10:09:52;;;;;;;2.92;0.80;;;20.30;99.90;;;;;;5074774;28;20083;-66
2022/07/14 10:12:18;;;;;;;2.90;0.85;;;20.60;99.90;;;;;;5074498;28;20041;-67
2022/07/14 10:14:44;;;;;;;2.85;0.80;;;20.60;99.90;;;;;;5074462;28;20098;-66
2022/07/14 10:17:12;;;;;;;5.30;0.80;;;20.40;99.90;;;;;;5074360;28;20518;-70
2022/07/14 10:19:38;;;;;;;9.35;1.40;;;20.70;99.90;;;;;;5074207;28;20072;-68
2022/07/14 10:22:04;;;;;;;3.97;0.80;;;20.40;99.90;;;;;;5074265;28;20400;-68
2022/07/14 10:24:30;;;;;;;4.82;0.90;;;20.30;99.90;;;;;;5074379;28;20044;-68
2022/07/14 10:26:57;;;;;;;4.55;0.80;;;20.30;99.90;;;;;;5074156;28;20060;-70
2022/07/14 10:29:22;;;;;;;3.85;1.13;;;20.10;99.90;;;;;;5073045;28;20044;-67
2022/07/14 10:32:03;;;;;;;3.45;1.00;;;20.10;99.90;;;;;;5074083;28;20048;-68
2022/07/14 10:34:33;;;;;;;3.75;0.80;;;20.30;99.90;;;;;;5073989;28;20145;-67
2022/07/14 10:37:07;;;;;;;5.45;1.25;;;20.00;99.90;;;;;;5074444;28;20186;-69
2022/07/14 10:40:26;;;;;;;4.50;1.02;;;20.20;99.90;;;;;;5073915;28;20477;-68
2022/07/14 10:43:11;;;;;;;4.72;0.77;;;19.80;99.90;;;;;;4976127;28;20121;-68
2022/07/14 10:45:51;;;;;;;3.92;1.15;;;19.80;99.90;;;;;;5073973;28;20052;-69
2022/07/14 10:48:32;;;;;;;2.92;0.90;;;19.70;99.90;;;;;;5073648;28;20071;-69
2022/07/14 10:51:26;;;;;;;3.92;1.15;;;19.70;99.90;;;;;;5073570;28;20048;-67
2022/07/14 10:54:07;;;;;;;4.45;1.42;;;19.70;99.90;;;;;;5074068;28;20052;-68
2022/07/14 10:56:33;;;;;;;3.70;0.80;;;19.60;99.90;;;;;;5073769;28;20055;-68
2022/07/14 10:59:26;;;;;;;2.17;1.00;;;19.40;99.90;;;;;;5073659;28;20049;-69
2022/07/14 11:02:13;;;;;;;4.60;0.93;;;19.50;99.90;;;;;;5073721;28;20350;-68
2022/07/14 11:04:59;;;;;;;3.50;1.10;;;19.60;99.90;;;;;;5073659;28;20114;-69
2022/07/14 11:07:52;;;;;;;3.97;0.93;;;19.40;99.90;;;;;;5073331;28;20067;-71
2022/07/14 11:10:21;;;;;;;2.80;0.88;;;19.80;99.90;;;;;;5073683;28;20064;-69
2022/07/14 11:13:04;;;;;;;2.35;0.88;;;19.80;99.90;;;;;;5073380;28;20127;-67
2022/07/14 11:15:50;;;;;;;2.53;1.02;;;20.30;99.90;;;;;;5073272;28;20056;-70
2022/07/14 11:18:22;;;;;;;4.35;0.90;;;20.70;99.90;;;;;;5073111;28;20059;-67
2022/07/14 11:21:14;;;;;;;3.97;1.30;;;21.00;99.90;;;;;;5073426;28;20045;-66
2022/07/14 11:23:49;;;;;;;5.55;1.10;;;21.20;99.90;;;;;;5073328;28;20044;-67
2022/07/14 11:26:50;;;;;;;7.88;1.17;;;21.20;99.90;;;;;;5072973;28;20496;-67
2022/07/14 11:29:31;;;;;;;3.80;1.00;;;21.30;99.90;;;;;;5029874;28;20072;-68
2022/07/14 11:31:57;;;;;;;1.45;0.90;;;21.60;99.90;;;;;;5073083;28;20040;-67
2022/07/14 11:37:16;;;;;;;5.68;1.00;;;21.20;99.90;;;;;;5073067;28;20386;-66
2022/07/14 11:39:44;;;;;;;1.77;0.90;;;21.40;99.90;;;;;;5073009;28;20048;-67
2022/07/14 11:42:16;;;;;;;3.28;0.85;;;22.00;99.90;;;;;;5072882;28;20052;-67
2022/07/14 11:44:42;;;;;;;4.30;0.98;;;21.40;99.90;;;;;;5072729;28;20044;-66
2022/07/14 11:47:09;;;;;;;2.88;1.00;;;21.30;99.90;;;;;;5072530;28;20117;-66
2022/07/14 11:49:37;;;;;;;2.72;0.88;;;20.80;99.90;;;;;;5072890;28;20045;-67
2022/07/14 11:52:05;;;;;;;6.97;1.27;;;20.60;99.90;;;;;;5072737;28;20102;-64
2022/07/14 11:54:31;;;;;;;4.88;1.00;;;20.90;99.90;;;;;;5072571;28;20044;-68
2022/07/14 11:57:10;;;;;;;2.60;1.00;;;21.00;99.90;;;;;;5072643;28;20044;-66
2022/07/14 11:59:41;;;;;;;5.97;1.02;;;20.80;99.90;;;;;;5072351;28;20044;-67
2022/07/14 12:02:19;;;;;;;5.28;1.00;;;20.90;99.90;;;;;;5072526;28;20067;-66
2022/07/14 12:04:55;;;;;;;6.15;1.30;;;21.20;99.90;;;;;;5072255;28;20058;-66
2022/07/14 12:07:41;;;;;;;4.70;0.90;;;21.10;99.90;;;;;;5071889;28;20057;-66
2022/07/14 12:10:08;;;;;;;4.32;1.08;;;21.10;99.90;;;;;;5049514;28;20071;-67
2022/07/14 12:12:40;;;;;;;4.20;1.13;;;21.20;99.90;;;;;;5058543;28;20045;-66
2022/07/14 12:15:07;;;;;;;8.85;1.20;;;21.20;99.90;;;;;;5065727;28;20053;-79
2022/07/14 12:17:46;;;;;;;2.50;1.50;;;21.20;99.90;;;;;;5065400;28;20075;-68
2022/07/14 12:20:13;;;;;;;6.00;1.08;;;21.30;99.90;;;;;;5053172;28;20085;-67
2022/07/14 12:22:50;;;;;;;4.50;0.95;;;21.10;99.90;;;;;;5055392;28;20056;-67
2022/07/14 12:25:35;;;;;;;4.80;1.17;;;21.20;99.90;;;;;;5059178;28;20061;-68
2022/07/14 12:28:04;;;;;;;6.45;1.10;;;21.70;99.90;;;;;;5054277;28;20037;-68
2022/07/14 12:30:43;;;;;;;5.90;1.35;;;21.70;99.90;;;;;;5064166;28;20078;-70
2022/07/14 12:33:09;;;;;;;6.30;1.38;;;21.90;99.90;;;;;;5060588;28;20127;-67
2022/07/14 12:35:35;;;;;;;3.92;1.25;;;22.10;99.90;;;;;;5039430;28;20052;-71
2022/07/14 12:38:01;;;;;;;7.15;1.23;;;21.70;99.90;;;;;;5069190;28;20052;-72
2022/07/14 12:40:28;;;;;;;6.35;1.35;;;21.80;99.90;;;;;;5067885;28;20052;-74
2022/07/14 12:42:54;;;;;;;7.35;1.30;;;21.80;99.90;;;;;;5069274;28;21064;-75
2022/07/14 12:45:20;;;;;;;3.85;1.15;;;21.80;99.90;;;;;;5068810;28;20052;-80
2022/07/14 12:47:55;;;;;;;4.22;1.17;;;21.80;99.90;;;;;;5068888;28;20048;-72
2022/07/14 12:50:24;;;;;;;4.15;1.05;;;21.60;99.90;;;;;;5061046;28;20059;-73
2022/07/14 12:52:57;;;;;;;2.17;1.00;;;20.20;99.90;;;;;;5067661;28;20051;-73
2022/07/14 12:55:36;;;;;;;4.38;1.25;;;21.80;99.90;;;;;;5069240;28;20492;-71
2022/07/14 12:58:07;;;;;;;5.57;1.35;;;22.30;99.90;;;;;;5065816;28;20048;-71
2022/07/14 13:00:35;;;;;;;3.67;1.02;;;22.70;99.90;;;;;;5065297;28;20173;-70
2022/07/14 13:03:15;;;;;;;4.57;0.95;;;22.60;99.90;;;;;;5070081;28;20053;-69
2022/07/14 13:05:51;;;;;;;4.70;1.08;;;22.90;99.90;;;;;;5063267;28;20045;-70
2022/07/14 13:08:28;;;;;;;4.18;1.20;;;22.80;99.90;;;;;;5064641;28;20416;-72
2022/07/14 13:10:58;;;;;;;3.72;1.20;;;22.60;99.90;;;;;;5068995;28;20442;-68
2022/07/14 13:13:30;;;;;;;2.97;1.00;;;22.90;99.90;;;;;;5070128;28;20049;-68
2022/07/14 13:16:25;;;;;;;4.68;1.13;;;22.70;99.90;;;;;;5042319;28;20064;-70
2022/07/14 13:19:10;;;;;;;4.97;1.13;;;22.60;99.90;;;;;;5059357;28;20049;-69
2022/07/14 13:21:55;;;;;;;4.78;1.00;;;22.90;99.90;;;;;;5036397;28;20044;-69